Terminal Aerodrome Forecast
Issued by NWS

Home | Current Version | Previous Version | Text Only | Print | Product List | Glossary On
Versions: 1 2 3 4 5 6 7 8 9 10 11 12 13 14 15 16
442
FTUS41 KALY 251122
TAFPSF
TAF
KPSF 251122Z 2512/2612 00000KT P6SM SCT100 BKN200
     FM251600 22007KT P6SM VCSH SCT060 BKN100
     FM251900 24010G18KT P6SM SCT060 PROB30 2521/2524 VRB15G30KT 3SM
      TSRA BR BKN050CB
     FM260000 VRB03KT 4SM BR SCT050 SCT250
     FM260400 VRB03KT 3/4SM BR SCT002=

USA.gov is the U.S. government's official web portal to all federal, state and local government web resources and services.